sensor_id;sensor_type;location;lat;lon;timestamp;pressure;altitude;pressure_sealevel;temperature;humidity
37200;BME280;23096;50.892;16.746;2023-03-23T00:02:02;98673.94;;;12.97;53.83
37200;BME280;23096;50.892;16.746;2023-03-23T00:04:28;98679.02;;;12.95;53.81
37200;BME280;23096;50.892;16.746;2023-03-23T00:06:54;98680.73;;;12.95;53.95
37200;BME280;23096;50.892;16.746;2023-03-23T00:09:19;98679.52;;;12.92;53.83
37200;BME280;23096;50.892;16.746;2023-03-23T00:11:50;98684.69;;;12.92;53.98
37200;BME280;23096;50.892;16.746;2023-03-23T00:14:16;98686.40;;;12.93;54.01
37200;BME280;23096;50.892;16.746;2023-03-23T00:16:48;98689.86;;;12.92;53.89
37200;BME280;23096;50.892;16.746;2023-03-23T00:19:15;98690.06;;;12.88;53.91
37200;BME280;23096;50.892;16.746;2023-03-23T00:21:42;98683.92;;;12.84;53.81
37200;BME280;23096;50.892;16.746;2023-03-23T00:24:16;98680.04;;;12.79;53.81
37200;BME280;23096;50.892;16.746;2023-03-23T00:26:47;98683.13;;;12.72;53.94
37200;BME280;23096;50.892;16.746;2023-03-23T00:31:44;98689.48;;;12.61;53.99
37200;BME280;23096;50.892;16.746;2023-03-23T00:34:15;98689.79;;;12.59;54.04
37200;BME280;23096;50.892;16.746;2023-03-23T00:36:48;98689.19;;;12.60;54.05
37200;BME280;23096;50.892;16.746;2023-03-23T00:39:14;98681.84;;;12.63;54.17
37200;BME280;23096;50.892;16.746;2023-03-23T00:41:45;98676.03;;;12.65;54.13
37200;BME280;23096;50.892;16.746;2023-03-23T00:44:11;98673.25;;;12.65;54.11
37200;BME280;23096;50.892;16.746;2023-03-23T00:46:46;98670.77;;;12.67;54.15
37200;BME280;23096;50.892;16.746;2023-03-23T00:49:19;98664.57;;;12.67;54.19
37200;BME280;23096;50.892;16.746;2023-03-23T00:51:45;98662.98;;;12.68;54.32
37200;BME280;23096;50.892;16.746;2023-03-23T00:54:11;98660.71;;;12.72;54.36
37200;BME280;23096;50.892;16.746;2023-03-23T00:56:38;98659.30;;;12.76;54.35
37200;BME280;23096;50.892;16.746;2023-03-23T00:59:06;98656.28;;;12.78;54.40
37200;BME280;23096;50.892;16.746;2023-03-23T01:01:33;98655.66;;;12.76;54.25
37200;BME280;23096;50.892;16.746;2023-03-23T01:03:59;98656.81;;;12.74;54.31
37200;BME280;23096;50.892;16.746;2023-03-23T01:06:31;98656.69;;;12.73;54.41
37200;BME280;23096;50.892;16.746;2023-03-23T01:08:59;98654.61;;;12.70;54.38
37200;BME280;23096;50.892;16.746;2023-03-23T01:11:26;98658.92;;;12.73;54.55
37200;BME280;23096;50.892;16.746;2023-03-23T01:13:52;98657.92;;;12.76;54.43
37200;BME280;23096;50.892;16.746;2023-03-23T01:16:19;98656.89;;;12.79;54.55
37200;BME280;23096;50.892;16.746;2023-03-23T01:18:45;98651.97;;;12.81;54.43
37200;BME280;23096;50.892;16.746;2023-03-23T01:21:13;98650.66;;;12.83;54.36
37200;BME280;23096;50.892;16.746;2023-03-23T01:23:40;98651.20;;;12.83;54.38
37200;BME280;23096;50.892;16.746;2023-03-23T01:26:11;98647.66;;;12.81;54.38
37200;BME280;23096;50.892;16.746;2023-03-23T01:28:37;98648.23;;;12.83;54.53
37200;BME280;23096;50.892;16.746;2023-03-23T01:31:09;98643.27;;;12.87;54.55
37200;BME280;23096;50.892;16.746;2023-03-23T01:33:35;98638.02;;;12.88;54.47
37200;BME280;23096;50.892;16.746;2023-03-23T01:36:06;98635.64;;;12.87;54.37
37200;BME280;23096;50.892;16.746;2023-03-23T01:38:33;98635.70;;;12.86;54.36
37200;BME280;23096;50.892;16.746;2023-03-23T01:41:00;98638.35;;;12.82;54.39
37200;BME280;23096;50.892;16.746;2023-03-23T01:43:26;98629.71;;;12.79;54.33
37200;BME280;23096;50.892;16.746;2023-03-23T01:45:52;98624.33;;;12.76;54.36
37200;BME280;23096;50.892;16.746;2023-03-23T01:48:24;98620.15;;;12.73;54.40
37200;BME280;23096;50.892;16.746;2023-03-23T01:50:58;98618.30;;;12.73;54.41
37200;BME280;23096;50.892;16.746;2023-03-23T01:53:30;98615.00;;;12.73;54.37
37200;BME280;23096;50.892;16.746;2023-03-23T01:55:59;98609.16;;;12.73;54.36
37200;BME280;23096;50.892;16.746;2023-03-23T01:58:29;98606.52;;;12.74;54.36
37200;BME280;23096;50.892;16.746;2023-03-23T02:00:58;98601.80;;;12.75;54.32
37200;BME280;23096;50.892;16.746;2023-03-23T02:03:28;98600.02;;;12.76;54.26
37200;BME280;23096;50.892;16.746;2023-03-23T02:05:57;98590.70;;;12.76;54.22
37200;BME280;23096;50.892;16.746;2023-03-23T02:08:32;98584.64;;;12.77;54.13
37200;BME280;23096;50.892;16.746;2023-03-23T02:10:59;98583.73;;;12.78;54.11
37200;BME280;23096;50.892;16.746;2023-03-23T02:13:27;98583.45;;;12.77;54.01
37200;BME280;23096;50.892;16.746;2023-03-23T02:31:00;98586.67;;;12.74;53.87
37200;BME280;23096;50.892;16.746;2023-03-23T02:41:20;98590.35;;;12.73;53.70
37200;BME280;23096;50.892;16.746;2023-03-23T02:43:49;98589.20;;;12.72;53.71
37200;BME280;23096;50.892;16.746;2023-03-23T02:46:16;98591.08;;;12.69;53.72
37200;BME280;23096;50.892;16.746;2023-03-23T02:48:44;98589.23;;;12.64;53.52
37200;BME280;23096;50.892;16.746;2023-03-23T02:51:12;98589.94;;;12.61;53.57
37200;BME280;23096;50.892;16.746;2023-03-23T02:53:40;98590.36;;;12.59;53.59
37200;BME280;23096;50.892;16.746;2023-03-23T02:56:09;98586.91;;;12.56;53.45
37200;BME280;23096;50.892;16.746;2023-03-23T02:58:36;98583.67;;;12.52;53.53
37200;BME280;23096;50.892;16.746;2023-03-23T03:04:06;98585.00;;;12.42;53.41
37200;BME280;23096;50.892;16.746;2023-03-23T03:06:41;98585.20;;;12.42;53.55
37200;BME280;23096;50.892;16.746;2023-03-23T03:09:20;98585.79;;;12.40;53.56
37200;BME280;23096;50.892;16.746;2023-03-23T03:11:50;98582.09;;;12.38;53.59
37200;BME280;23096;50.892;16.746;2023-03-23T03:14:23;98574.75;;;12.37;53.69
37200;BME280;23096;50.892;16.746;2023-03-23T03:17:07;98570.92;;;12.45;53.84
37200;BME280;23096;50.892;16.746;2023-03-23T03:19:39;98570.69;;;12.53;53.86
37200;BME280;23096;50.892;16.746;2023-03-23T03:22:08;98570.42;;;12.58;53.79
37200;BME280;23096;50.892;16.746;2023-03-23T03:24:39;98566.97;;;12.65;53.88
37200;BME280;23096;50.892;16.746;2023-03-23T03:27:12;98566.61;;;12.76;53.69
37200;BME280;23096;50.892;16.746;2023-03-23T03:29:49;98565.07;;;12.85;53.74
37200;BME280;23096;50.892;16.746;2023-03-23T03:32:22;98567.54;;;12.98;53.75
37200;BME280;23096;50.892;16.746;2023-03-23T03:34:50;98566.73;;;13.07;53.66
37200;BME280;23096;50.892;16.746;2023-03-23T03:37:18;98564.60;;;13.14;53.53
37200;BME280;23096;50.892;16.746;2023-03-23T03:39:45;98566.77;;;13.22;53.50
37200;BME280;23096;50.892;16.746;2023-03-23T03:42:11;98568.77;;;13.30;53.41
37200;BME280;23096;50.892;16.746;2023-03-23T03:44:36;98563.13;;;13.39;53.41
37200;BME280;23096;50.892;16.746;2023-03-23T03:47:03;98563.45;;;13.49;53.29
37200;BME280;23096;50.892;16.746;2023-03-23T03:49:28;98565.21;;;13.55;53.34
37200;BME280;23096;50.892;16.746;2023-03-23T03:51:54;98561.84;;;13.60;53.29
37200;BME280;23096;50.892;16.746;2023-03-23T03:54:24;98564.77;;;13.59;52.91
37200;BME280;23096;50.892;16.746;2023-03-23T03:56:49;98567.67;;;13.57;52.79
37200;BME280;23096;50.892;16.746;2023-03-23T03:59:39;98568.69;;;13.55;52.84
37200;BME280;23096;50.892;16.746;2023-03-23T04:02:47;98568.95;;;13.53;52.55
37200;BME280;23096;50.892;16.746;2023-03-23T04:05:16;98565.59;;;13.51;52.63
37200;BME280;23096;50.892;16.746;2023-03-23T04:07:43;98562.96;;;13.51;52.62
37200;BME280;23096;50.892;16.746;2023-03-23T04:10:10;98566.00;;;13.53;52.61
37200;BME280;23096;50.892;16.746;2023-03-23T04:12:37;98564.10;;;13.53;52.55
37200;BME280;23096;50.892;16.746;2023-03-23T04:15:21;98562.04;;;13.53;52.44
37200;BME280;23096;50.892;16.746;2023-03-23T04:17:47;98559.61;;;13.53;52.47
37200;BME280;23096;50.892;16.746;2023-03-23T04:20:13;98561.13;;;13.54;52.50
37200;BME280;23096;50.892;16.746;2023-03-23T04:22:41;98561.80;;;13.60;52.49
37200;BME280;23096;50.892;16.746;2023-03-23T04:25:11;98561.09;;;13.64;52.33
37200;BME280;23096;50.892;16.746;2023-03-23T04:27:39;98554.90;;;13.64;52.38
37200;BME280;23096;50.892;16.746;2023-03-23T04:30:12;98552.53;;;13.63;52.17
37200;BME280;23096;50.892;16.746;2023-03-23T04:33:01;98545.11;;;13.60;52.21
37200;BME280;23096;50.892;16.746;2023-03-23T04:35:27;98541.51;;;13.56;52.18
37200;BME280;23096;50.892;16.746;2023-03-23T04:38:06;98539.80;;;13.53;52.17
37200;BME280;23096;50.892;16.746;2023-03-23T04:40:36;98533.08;;;13.55;52.13
37200;BME280;23096;50.892;16.746;2023-03-23T04:43:10;98531.23;;;13.58;52.06
37200;BME280;23096;50.892;16.746;2023-03-23T04:46:03;98528.51;;;13.57;52.10
37200;BME280;23096;50.892;16.746;2023-03-23T04:48:34;98530.98;;;13.53;51.92
37200;BME280;23096;50.892;16.746;2023-03-23T04:51:09;98528.80;;;13.49;52.16
37200;BME280;23096;50.892;16.746;2023-03-23T04:53:35;98529.66;;;13.46;52.11
37200;BME280;23096;50.892;16.746;2023-03-23T04:56:01;98537.13;;;13.45;52.17
37200;BME280;23096;50.892;16.746;2023-03-23T04:58:31;98538.92;;;13.47;52.29
37200;BME280;23096;50.892;16.746;2023-03-23T05:01:17;98538.02;;;13.51;52.25
37200;BME280;23096;50.892;16.746;2023-03-23T05:04:03;98535.41;;;13.54;52.15
37200;BME280;23096;50.892;16.746;2023-03-23T05:06:31;98534.73;;;13.57;52.17
37200;BME280;23096;50.892;16.746;2023-03-23T05:09:01;98540.02;;;13.61;52.07
37200;BME280;23096;50.892;16.746;2023-03-23T05:11:27;98539.19;;;13.64;52.08
37200;BME280;23096;50.892;16.746;2023-03-23T05:13:53;98536.66;;;13.66;51.93
37200;BME280;23096;50.892;16.746;2023-03-23T05:16:19;98534.92;;;13.69;51.93
37200;BME280;23096;50.892;16.746;2023-03-23T05:18:44;98531.54;;;13.71;52.00
37200;BME280;23096;50.892;16.746;2023-03-23T05:21:14;98531.38;;;13.71;51.88
37200;BME280;23096;50.892;16.746;2023-03-23T05:23:42;98529.55;;;13.70;51.94
37200;BME280;23096;50.892;16.746;2023-03-23T05:26:17;98529.98;;;13.68;51.77
37200;BME280;23096;50.892;16.746;2023-03-23T05:28:43;98525.04;;;13.64;51.70
37200;BME280;23096;50.892;16.746;2023-03-23T05:31:17;98519.46;;;13.58;51.65
37200;BME280;23096;50.892;16.746;2023-03-23T05:33:44;98516.64;;;13.53;51.69
37200;BME280;23096;50.892;16.746;2023-03-23T05:36:15;98515.41;;;13.50;51.66
37200;BME280;23096;50.892;16.746;2023-03-23T05:39:01;98511.19;;;13.49;51.70
37200;BME280;23096;50.892;16.746;2023-03-23T05:41:41;98512.15;;;13.50;51.62
37200;BME280;23096;50.892;16.746;2023-03-23T05:44:06;98512.71;;;13.53;51.76
37200;BME280;23096;50.892;16.746;2023-03-23T05:46:45;98516.65;;;13.53;51.72
37200;BME280;23096;50.892;16.746;2023-03-23T05:49:11;98518.16;;;13.54;51.71
37200;BME280;23096;50.892;16.746;2023-03-23T05:51:38;98520.83;;;13.55;51.84
37200;BME280;23096;50.892;16.746;2023-03-23T05:54:04;98522.52;;;13.56;51.72
37200;BME280;23096;50.892;16.746;2023-03-23T05:56:30;98522.52;;;13.56;51.79
37200;BME280;23096;50.892;16.746;2023-03-23T05:59:16;98519.55;;;13.56;51.73
37200;BME280;23096;50.892;16.746;2023-03-23T06:01:43;98518.98;;;13.57;51.90
37200;BME280;23096;50.892;16.746;2023-03-23T06:04:09;98517.96;;;13.58;52.02
37200;BME280;23096;50.892;16.746;2023-03-23T06:06:51;98519.66;;;13.58;51.79
37200;BME280;23096;50.892;16.746;2023-03-23T06:09:18;98517.77;;;13.58;51.85
37200;BME280;23096;50.892;16.746;2023-03-23T06:12:12;98520.50;;;13.58;51.94
37200;BME280;23096;50.892;16.746;2023-03-23T06:14:51;98518.04;;;13.59;51.90
37200;BME280;23096;50.892;16.746;2023-03-23T06:17:21;98518.81;;;13.61;51.96
37200;BME280;23096;50.892;16.746;2023-03-23T06:19:50;98522.77;;;13.61;52.03
37200;BME280;23096;50.892;16.746;2023-03-23T06:22:17;98522.42;;;13.64;52.17
37200;BME280;23096;50.892;16.746;2023-03-23T06:25:02;98519.52;;;13.70;52.15
37200;BME280;23096;50.892;16.746;2023-03-23T06:27:34;98518.08;;;13.77;52.28
37200;BME280;23096;50.892;16.746;2023-03-23T06:30:03;98516.23;;;13.82;52.34
37200;BME280;23096;50.892;16.746;2023-03-23T06:32:31;98518.10;;;13.86;52.33
37200;BME280;23096;50.892;16.746;2023-03-23T06:34:57;98514.36;;;13.88;52.40
37200;BME280;23096;50.892;16.746;2023-03-23T06:37:38;98515.57;;;13.91;52.37
37200;BME280;23096;50.892;16.746;2023-03-23T06:40:24;98518.02;;;13.93;52.34
37200;BME280;23096;50.892;16.746;2023-03-23T06:42:56;98514.52;;;13.97;52.37
37200;BME280;23096;50.892;16.746;2023-03-23T06:45:33;98512.60;;;14.00;52.27
37200;BME280;23096;50.892;16.746;2023-03-23T06:48:21;98511.20;;;14.04;52.33
37200;BME280;23096;50.892;16.746;2023-03-23T06:50:47;98511.04;;;14.07;52.49
37200;BME280;23096;50.892;16.746;2023-03-23T06:53:15;98509.20;;;14.12;52.53
37200;BME280;23096;50.892;16.746;2023-03-23T06:55:43;98506.60;;;14.18;52.48
37200;BME280;23096;50.892;16.746;2023-03-23T06:58:10;98505.77;;;14.23;52.52
37200;BME280;23096;50.892;16.746;2023-03-23T07:00:36;98497.28;;;14.30;52.44
37200;BME280;23096;50.892;16.746;2023-03-23T07:03:02;98496.77;;;14.38;52.54
37200;BME280;23096;50.892;16.746;2023-03-23T07:05:29;98500.34;;;14.51;52.65
37200;BME280;23096;50.892;16.746;2023-03-23T07:07:55;98500.91;;;14.68;52.86
37200;BME280;23096;50.892;16.746;2023-03-23T07:10:43;98505.54;;;14.89;52.76
37200;BME280;23096;50.892;16.746;2023-03-23T07:13:09;98509.93;;;15.13;52.94
37200;BME280;23096;50.892;16.746;2023-03-23T07:15:44;98507.34;;;15.32;52.82
37200;BME280;23096;50.892;16.746;2023-03-23T07:18:10;98501.66;;;15.45;52.65
37200;BME280;23096;50.892;16.746;2023-03-23T07:20:42;98508.31;;;15.52;52.51
37200;BME280;23096;50.892;16.746;2023-03-23T07:23:08;98516.36;;;15.59;52.41
37200;BME280;23096;50.892;16.746;2023-03-23T07:25:44;98523.37;;;15.66;52.37
37200;BME280;23096;50.892;16.746;2023-03-23T07:28:13;98525.75;;;15.72;52.25
37200;BME280;23096;50.892;16.746;2023-03-23T07:30:39;98523.50;;;15.76;52.26
37200;BME280;23096;50.892;16.746;2023-03-23T07:33:06;98521.02;;;15.76;52.04
37200;BME280;23096;50.892;16.746;2023-03-23T07:35:32;98518.23;;;15.73;51.93
37200;BME280;23096;50.892;16.746;2023-03-23T07:38:03;98518.84;;;15.69;51.77
37200;BME280;23096;50.892;16.746;2023-03-23T07:40:29;98520.30;;;15.68;51.60
37200;BME280;23096;50.892;16.746;2023-03-23T07:43:01;98517.14;;;15.66;51.52
37200;BME280;23096;50.892;16.746;2023-03-23T07:45:53;98518.13;;;15.64;51.46
37200;BME280;23096;50.892;16.746;2023-03-23T07:48:20;98517.77;;;15.64;51.35
37200;BME280;23096;50.892;16.746;2023-03-23T07:50:46;98515.48;;;15.65;51.28
37200;BME280;23096;50.892;16.746;2023-03-23T07:53:12;98509.16;;;15.63;51.13
37200;BME280;23096;50.892;16.746;2023-03-23T07:55:39;98504.94;;;15.59;51.05
37200;BME280;23096;50.892;16.746;2023-03-23T07:58:25;98504.46;;;15.53;50.87
37200;BME280;23096;50.892;16.746;2023-03-23T08:00:53;98504.34;;;15.49;50.87
37200;BME280;23096;50.892;16.746;2023-03-23T08:03:20;98505.25;;;15.49;50.84
37200;BME280;23096;50.892;16.746;2023-03-23T08:06:04;98506.40;;;15.49;50.71
37200;BME280;23096;50.892;16.746;2023-03-23T08:08:49;98503.05;;;15.50;50.60
37200;BME280;23096;50.892;16.746;2023-03-23T08:11:34;98505.42;;;15.51;50.64
37200;BME280;23096;50.892;16.746;2023-03-23T08:14:15;98497.86;;;15.53;50.44
37200;BME280;23096;50.892;16.746;2023-03-23T08:17:10;98490.52;;;15.57;50.51
37200;BME280;23096;50.892;16.746;2023-03-23T08:19:55;98492.71;;;15.61;50.57
37200;BME280;23096;50.892;16.746;2023-03-23T08:22:41;98489.52;;;15.65;50.62
37200;BME280;23096;50.892;16.746;2023-03-23T08:25:47;98484.17;;;15.70;50.41
37200;BME280;23096;50.892;16.746;2023-03-23T08:28:23;98489.20;;;15.70;50.45
37200;BME280;23096;50.892;16.746;2023-03-23T08:31:09;98501.27;;;15.70;50.43
37200;BME280;23096;50.892;16.746;2023-03-23T08:34:02;98506.86;;;15.72;50.47
37200;BME280;23096;50.892;16.746;2023-03-23T08:36:31;98507.22;;;15.69;50.43
37200;BME280;23096;50.892;16.746;2023-03-23T08:39:15;98507.97;;;15.66;50.28
37200;BME280;23096;50.892;16.746;2023-03-23T08:42:00;98509.09;;;15.65;50.27
37200;BME280;23096;50.892;16.746;2023-03-23T08:44:55;98514.16;;;15.69;50.24
37200;BME280;23096;50.892;16.746;2023-03-23T08:47:44;98514.15;;;15.80;50.54
37200;BME280;23096;50.892;16.746;2023-03-23T08:50:20;98506.00;;;15.92;50.51
37200;BME280;23096;50.892;16.746;2023-03-23T08:53:06;98506.96;;;16.06;50.46
37200;BME280;23096;50.892;16.746;2023-03-23T08:55:48;98518.83;;;16.15;50.57
37200;BME280;23096;50.892;16.746;2023-03-23T08:58:38;98513.65;;;16.23;50.46
37200;BME280;23096;50.892;16.746;2023-03-23T09:01:27;98517.55;;;16.32;50.50
37200;BME280;23096;50.892;16.746;2023-03-23T09:04:22;98520.48;;;16.35;50.34
37200;BME280;23096;50.892;16.746;2023-03-23T09:07:19;98522.39;;;16.35;50.30
37200;BME280;23096;50.892;16.746;2023-03-23T09:09:45;98520.21;;;16.34;50.09
37200;BME280;23096;50.892;16.746;2023-03-23T09:12:11;98529.98;;;16.38;50.18
37200;BME280;23096;50.892;16.746;2023-03-23T09:14:37;98523.98;;;16.39;50.21
37200;BME280;23096;50.892;16.746;2023-03-23T09:17:04;98525.02;;;16.37;50.21
37200;BME280;23096;50.892;16.746;2023-03-23T09:19:32;98525.23;;;16.31;50.03
37200;BME280;23096;50.892;16.746;2023-03-23T09:21:58;98522.55;;;16.27;50.08
37200;BME280;23096;50.892;16.746;2023-03-23T09:24:24;98520.28;;;16.27;50.22
37200;BME280;23096;50.892;16.746;2023-03-23T09:26:50;98514.37;;;16.27;50.13
37200;BME280;23096;50.892;16.746;2023-03-23T09:29:16;98518.39;;;16.27;50.05
37200;BME280;23096;50.892;16.746;2023-03-23T09:31:42;98520.15;;;16.29;50.06
37200;BME280;23096;50.892;16.746;2023-03-23T09:34:09;98523.91;;;16.33;50.08
37200;BME280;23096;50.892;16.746;2023-03-23T09:36:37;98531.54;;;16.38;50.07
37200;BME280;23096;50.892;16.746;2023-03-23T09:39:05;98537.90;;;16.41;50.02
37200;BME280;23096;50.892;16.746;2023-03-23T09:49:57;98537.74;;;16.61;49.87
37200;BME280;23096;50.892;16.746;2023-03-23T09:52:37;98538.85;;;16.63;49.83
37200;BME280;23096;50.892;16.746;2023-03-23T09:55:04;98532.56;;;16.66;49.78
37200;BME280;23096;50.892;16.746;2023-03-23T09:57:59;98527.30;;;16.67;49.63
37200;BME280;23096;50.892;16.746;2023-03-23T10:00:32;98524.80;;;16.71;49.57
37200;BME280;23096;50.892;16.746;2023-03-23T10:03:05;98513.19;;;16.81;49.57
37200;BME280;23096;50.892;16.746;2023-03-23T10:05:58;98516.25;;;16.95;49.78
37200;BME280;23096;50.892;16.746;2023-03-23T10:08:30;98510.15;;;17.05;49.53
37200;BME280;23096;50.892;16.746;2023-03-23T10:16:03;98513.26;;;17.20;49.24
37200;BME280;23096;50.892;16.746;2023-03-23T10:18:36;98515.11;;;17.33;49.24
37200;BME280;23096;50.892;16.746;2023-03-23T10:21:03;98513.89;;;17.46;49.07
37200;BME280;23096;50.892;16.746;2023-03-23T10:32:16;98535.64;;;17.89;48.43
37200;BME280;23096;50.892;16.746;2023-03-23T10:35:01;98529.15;;;17.94;48.36
37200;BME280;23096;50.892;16.746;2023-03-23T10:38:24;98531.39;;;18.02;48.11
37200;BME280;23096;50.892;16.746;2023-03-23T10:41:14;98527.58;;;18.13;48.02
37200;BME280;23096;50.892;16.746;2023-03-23T10:43:41;98530.59;;;18.25;47.83
37200;BME280;23096;50.892;16.746;2023-03-23T10:46:32;98538.60;;;18.29;47.64
37200;BME280;23096;50.892;16.746;2023-03-23T10:49:06;98537.92;;;18.26;47.32
37200;BME280;23096;50.892;16.746;2023-03-23T10:51:40;98534.80;;;18.17;47.01
37200;BME280;23096;50.892;16.746;2023-03-23T10:54:07;98534.39;;;18.03;46.98
37200;BME280;23096;50.892;16.746;2023-03-23T10:56:37;98545.83;;;17.94;47.03
37200;BME280;23096;50.892;16.746;2023-03-23T10:59:13;98549.23;;;17.88;46.91
37200;BME280;23096;50.892;16.746;2023-03-23T11:01:43;98545.80;;;17.82;46.81
37200;BME280;23096;50.892;16.746;2023-03-23T11:04:15;98543.44;;;17.79;46.83
37200;BME280;23096;50.892;16.746;2023-03-23T11:06:46;98542.06;;;17.71;46.76
37200;BME280;23096;50.892;16.746;2023-03-23T11:09:16;98538.64;;;17.66;46.81
37200;BME280;23096;50.892;16.746;2023-03-23T11:11:53;98548.23;;;17.63;46.74
37200;BME280;23096;50.892;16.746;2023-03-23T11:14:34;98546.03;;;17.62;46.63
37200;BME280;23096;50.892;16.746;2023-03-23T11:17:04;98546.96;;;17.59;46.69
37200;BME280;23096;50.892;16.746;2023-03-23T11:19:32;98553.30;;;17.55;46.65
37200;BME280;23096;50.892;16.746;2023-03-23T11:24:46;98552.11;;;17.50;46.57
37200;BME280;23096;50.892;16.746;2023-03-23T11:27:14;98557.80;;;17.55;46.64
37200;BME280;23096;50.892;16.746;2023-03-23T11:29:55;98552.95;;;17.63;46.79
37200;BME280;23096;50.892;16.746;2023-03-23T11:32:28;98550.73;;;17.67;46.71
37200;BME280;23096;50.892;16.746;2023-03-23T11:35:11;98547.92;;;17.62;46.63
37200;BME280;23096;50.892;16.746;2023-03-23T11:37:47;98549.38;;;17.57;46.44
37200;BME280;23096;50.892;16.746;2023-03-23T11:40:20;98549.36;;;17.52;46.51
37200;BME280;23096;50.892;16.746;2023-03-23T11:45:32;98548.84;;;17.47;46.57
37200;BME280;23096;50.892;16.746;2023-03-23T11:50:57;98559.63;;;17.39;46.48
37200;BME280;23096;50.892;16.746;2023-03-23T11:58:23;98568.95;;;17.33;46.67
37200;BME280;23096;50.892;16.746;2023-03-23T12:12:26;98562.41;;;17.17;46.82
37200;BME280;23096;50.892;16.746;2023-03-23T12:25:30;98564.80;;;17.13;46.95
37200;BME280;23096;50.892;16.746;2023-03-23T12:28:07;98561.36;;;17.12;46.89
37200;BME280;23096;50.892;16.746;2023-03-23T12:33:33;98565.68;;;17.15;47.24
37200;BME280;23096;50.892;16.746;2023-03-23T12:36:34;98564.23;;;17.14;47.04
37200;BME280;23096;50.892;16.746;2023-03-23T12:42:04;98566.41;;;17.10;47.16
37200;BME280;23096;50.892;16.746;2023-03-23T12:45:43;98565.71;;;17.07;47.08
37200;BME280;23096;50.892;16.746;2023-03-23T12:48:00;98559.04;;;17.05;46.98
37200;BME280;23096;50.892;16.746;2023-03-23T12:50:45;98562.77;;;17.07;47.09
37200;BME280;23096;50.892;16.746;2023-03-23T12:53:19;98559.57;;;17.08;47.18
37200;BME280;23096;50.892;16.746;2023-03-23T12:56:17;98551.98;;;17.07;47.12
37200;BME280;23096;50.892;16.746;2023-03-23T12:58:48;98546.66;;;17.09;47.18
37200;BME280;23096;50.892;16.746;2023-03-23T13:01:23;98547.48;;;17.13;47.20
37200;BME280;23096;50.892;16.746;2023-03-23T13:03:57;98547.41;;;17.16;47.21
37200;BME280;23096;50.892;16.746;2023-03-23T13:06:44;98546.27;;;17.19;47.28
37200;BME280;23096;50.892;16.746;2023-03-23T13:09:53;98539.88;;;17.19;47.36
37200;BME280;23096;50.892;16.746;2023-03-23T13:12:22;98540.25;;;17.21;47.34
37200;BME280;23096;50.892;16.746;2023-03-23T13:15:20;98547.92;;;17.23;47.29
37200;BME280;23096;50.892;16.746;2023-03-23T13:26:07;98544.92;;;17.27;47.36
37200;BME280;23096;50.892;16.746;2023-03-23T13:31:16;98539.98;;;17.25;47.46
37200;BME280;23096;50.892;16.746;2023-03-23T13:33:50;98533.81;;;17.24;47.42
37200;BME280;23096;50.892;16.746;2023-03-23T13:36:24;98532.69;;;17.23;47.34
37200;BME280;23096;50.892;16.746;2023-03-23T13:38:50;98542.03;;;17.23;47.41
37200;BME280;23096;50.892;16.746;2023-03-23T13:41:18;98539.77;;;17.23;47.46
37200;BME280;23096;50.892;16.746;2023-03-23T13:43:45;98536.23;;;17.24;47.41
37200;BME280;23096;50.892;16.746;2023-03-23T13:46:24;98536.41;;;17.26;47.38
37200;BME280;23096;50.892;16.746;2023-03-23T13:49:05;98542.40;;;17.25;47.36
37200;BME280;23096;50.892;16.746;2023-03-23T13:56:53;98537.59;;;17.24;47.65
37200;BME280;23096;50.892;16.746;2023-03-23T14:01:57;98537.98;;;17.21;47.57
37200;BME280;23096;50.892;16.746;2023-03-23T14:04:41;98535.00;;;17.22;47.66
37200;BME280;23096;50.892;16.746;2023-03-23T14:07:11;98533.59;;;17.25;47.82
37200;BME280;23096;50.892;16.746;2023-03-23T14:09:42;98534.58;;;17.26;47.78
37200;BME280;23096;50.892;16.746;2023-03-23T14:12:30;98537.25;;;17.27;47.60
37200;BME280;23096;50.892;16.746;2023-03-23T14:15:00;98533.33;;;17.28;47.68
37200;BME280;23096;50.892;16.746;2023-03-23T14:17:31;98535.18;;;17.29;47.61
37200;BME280;23096;50.892;16.746;2023-03-23T14:19:59;98533.56;;;17.30;47.62
37200;BME280;23096;50.892;16.746;2023-03-23T14:22:37;98532.14;;;17.31;47.67
37200;BME280;23096;50.892;16.746;2023-03-23T14:25:14;98532.72;;;17.30;47.63
37200;BME280;23096;50.892;16.746;2023-03-23T14:27:41;98539.85;;;17.30;47.79
37200;BME280;23096;50.892;16.746;2023-03-23T14:32:40;98537.63;;;17.27;47.86
37200;BME280;23096;50.892;16.746;2023-03-23T14:37:38;98530.27;;;17.28;47.84
37200;BME280;23096;50.892;16.746;2023-03-23T14:40:05;98530.17;;;17.29;47.94
37200;BME280;23096;50.892;16.746;2023-03-23T14:42:35;98532.16;;;17.28;48.10
37200;BME280;23096;50.892;16.746;2023-03-23T14:45:04;98529.05;;;17.25;47.98
37200;BME280;23096;50.892;16.746;2023-03-23T14:47:44;98529.27;;;17.24;47.89
37200;BME280;23096;50.892;16.746;2023-03-23T14:50:40;98533.13;;;17.24;48.06
37200;BME280;23096;50.892;16.746;2023-03-23T14:53:31;98529.52;;;17.21;48.08
37200;BME280;23096;50.892;16.746;2023-03-23T14:56:06;98532.98;;;17.19;48.26
37200;BME280;23096;50.892;16.746;2023-03-23T14:58:32;98534.52;;;17.17;48.42
37200;BME280;23096;50.892;16.746;2023-03-23T15:01:09;98532.75;;;17.15;48.54
37200;BME280;23096;50.892;16.746;2023-03-23T15:03:53;98535.52;;;17.12;48.47
37200;BME280;23096;50.892;16.746;2023-03-23T15:06:24;98541.63;;;17.09;48.45
37200;BME280;23096;50.892;16.746;2023-03-23T15:08:54;98538.08;;;17.03;48.63
37200;BME280;23096;50.892;16.746;2023-03-23T15:11:27;98543.45;;;16.98;48.81
37200;BME280;23096;50.892;16.746;2023-03-23T15:13:56;98541.09;;;16.94;48.93
37200;BME280;23096;50.892;16.746;2023-03-23T15:16:30;98540.92;;;16.92;48.92
37200;BME280;23096;50.892;16.746;2023-03-23T15:18:57;98532.48;;;16.88;49.10